sensor_id;sensor_type;location;lat;lon;timestamp;temperature;humidity
30764;DHT22;17497;51.476;7.770;2023-03-01T00:00:44;0.00;99.90
30764;DHT22;17497;51.476;7.770;2023-03-01T00:03:13;0.00;99.90
30764;DHT22;17497;51.476;7.770;2023-03-01T00:05:44;0.00;99.90
30764;DHT22;17497;51.476;7.770;2023-03-01T00:08:11;-0.10;99.90
30764;DHT22;17497;51.476;7.770;2023-03-01T00:10:37;-0.10;99.90
30764;DHT22;17497;51.476;7.770;2023-03-01T00:13:05;-0.20;99.90
30764;DHT22;17497;51.476;7.770;2023-03-01T00:15:31;-0.10;99.90
30764;DHT22;17497;51.476;7.770;2023-03-01T00:17:58;-0.10;99.90
30764;DHT22;17497;51.476;7.770;2023-03-01T00:20:25;-0.10;99.90
30764;DHT22;17497;51.476;7.770;2023-03-01T00:22:52;-0.10;99.90
30764;DHT22;17497;51.476;7.770;2023-03-01T00:25:18;-0.20;99.90
30764;DHT22;17497;51.476;7.770;2023-03-01T00:27:46;-0.30;99.90
30764;DHT22;17497;51.476;7.770;2023-03-01T00:30:13;-0.30;99.90
30764;DHT22;17497;51.476;7.770;2023-03-01T00:32:42;-0.30;99.90
30764;DHT22;17497;51.476;7.770;2023-03-01T00:35:09;-0.40;99.90
30764;DHT22;17497;51.476;7.770;2023-03-01T00:37:35;-0.40;99.90
30764;DHT22;17497;51.476;7.770;2023-03-01T00:40:02;-0.30;99.90
30764;DHT22;17497;51.476;7.770;2023-03-01T00:42:33;-0.30;99.90
30764;DHT22;17497;51.476;7.770;2023-03-01T00:45:00;-0.40;99.90
30764;DHT22;17497;51.476;7.770;2023-03-01T00:47:28;-0.40;99.90
30764;DHT22;17497;51.476;7.770;2023-03-01T00:49:55;-0.30;99.90
30764;DHT22;17497;51.476;7.770;2023-03-01T00:52:21;-0.40;99.90
30764;DHT22;17497;51.476;7.770;2023-03-01T00:54:51;-0.40;99.90
30764;DHT22;17497;51.476;7.770;2023-03-01T00:57:18;-0.40;99.90
30764;DHT22;17497;51.476;7.770;2023-03-01T00:59:47;-0.40;99.90
30764;DHT22;17497;51.476;7.770;2023-03-01T01:02:14;-0.40;99.90
30764;DHT22;17497;51.476;7.770;2023-03-01T01:04:41;-0.40;99.90
30764;DHT22;17497;51.476;7.770;2023-03-01T01:07:07;-0.40;99.90
30764;DHT22;17497;51.476;7.770;2023-03-01T01:09:34;-0.50;99.90
30764;DHT22;17497;51.476;7.770;2023-03-01T01:12:01;-0.50;99.90
30764;DHT22;17497;51.476;7.770;2023-03-01T01:14:28;-0.60;99.90
30764;DHT22;17497;51.476;7.770;2023-03-01T01:16:55;-0.60;99.90
30764;DHT22;17497;51.476;7.770;2023-03-01T01:19:23;-0.60;99.90
30764;DHT22;17497;51.476;7.770;2023-03-01T01:21:50;-0.70;99.90
30764;DHT22;17497;51.476;7.770;2023-03-01T01:24:18;-0.70;99.90
30764;DHT22;17497;51.476;7.770;2023-03-01T01:26:46;-0.80;99.90
30764;DHT22;17497;51.476;7.770;2023-03-01T01:29:13;-0.80;99.90
30764;DHT22;17497;51.476;7.770;2023-03-01T01:31:40;-0.80;99.90
30764;DHT22;17497;51.476;7.770;2023-03-01T01:34:08;-1.00;99.90
30764;DHT22;17497;51.476;7.770;2023-03-01T01:36:35;-0.90;99.90
30764;DHT22;17497;51.476;7.770;2023-03-01T01:39:02;-0.90;99.90
30764;DHT22;17497;51.476;7.770;2023-03-01T01:41:29;-0.90;99.90
30764;DHT22;17497;51.476;7.770;2023-03-01T01:44:13;-0.80;99.90
30764;DHT22;17497;51.476;7.770;2023-03-01T01:46:52;-0.80;99.90
30764;DHT22;17497;51.476;7.770;2023-03-01T01:51:51;-0.80;99.90
30764;DHT22;17497;51.476;7.770;2023-03-01T01:54:23;-0.80;99.90
30764;DHT22;17497;51.476;7.770;2023-03-01T01:56:52;-0.80;99.90
30764;DHT22;17497;51.476;7.770;2023-03-01T01:59:21;-0.80;99.90
30764;DHT22;17497;51.476;7.770;2023-03-01T02:01:53;-0.90;99.90
30764;DHT22;17497;51.476;7.770;2023-03-01T02:04:20;-0.90;99.90
30764;DHT22;17497;51.476;7.770;2023-03-01T02:06:49;-0.90;99.90
30764;DHT22;17497;51.476;7.770;2023-03-01T02:09:18;-0.90;99.90
30764;DHT22;17497;51.476;7.770;2023-03-01T02:11:45;-1.00;99.90
30764;DHT22;17497;51.476;7.770;2023-03-01T02:14:14;-1.00;99.90
30764;DHT22;17497;51.476;7.770;2023-03-01T02:16:41;-1.00;99.90
30764;DHT22;17497;51.476;7.770;2023-03-01T02:19:08;-1.10;99.90
30764;DHT22;17497;51.476;7.770;2023-03-01T02:24:22;-1.10;99.90
30764;DHT22;17497;51.476;7.770;2023-03-01T02:26:52;-1.10;99.90
30764;DHT22;17497;51.476;7.770;2023-03-01T02:29:22;-1.20;99.90
30764;DHT22;17497;51.476;7.770;2023-03-01T02:31:50;-1.20;99.90
30764;DHT22;17497;51.476;7.770;2023-03-01T02:34:20;-1.20;99.90
30764;DHT22;17497;51.476;7.770;2023-03-01T02:39:15;-1.20;99.90
30764;DHT22;17497;51.476;7.770;2023-03-01T02:41:44;-1.20;99.90
30764;DHT22;17497;51.476;7.770;2023-03-01T02:44:12;-1.20;99.90
30764;DHT22;17497;51.476;7.770;2023-03-01T02:46:43;-1.20;99.90
30764;DHT22;17497;51.476;7.770;2023-03-01T02:54:40;-1.30;99.90
30764;DHT22;17497;51.476;7.770;2023-03-01T02:57:07;-1.20;99.90
30764;DHT22;17497;51.476;7.770;2023-03-01T02:59:35;-1.20;99.90
30764;DHT22;17497;51.476;7.770;2023-03-01T03:02:06;-1.20;99.90
30764;DHT22;17497;51.476;7.770;2023-03-01T03:04:35;-1.20;99.90
30764;DHT22;17497;51.476;7.770;2023-03-01T03:07:01;-1.30;99.90
30764;DHT22;17497;51.476;7.770;2023-03-01T03:09:29;-1.30;99.90
30764;DHT22;17497;51.476;7.770;2023-03-01T03:11:56;-1.30;99.90
30764;DHT22;17497;51.476;7.770;2023-03-01T03:14:23;-1.40;99.90
30764;DHT22;17497;51.476;7.770;2023-03-01T03:16:50;-1.40;99.90
30764;DHT22;17497;51.476;7.770;2023-03-01T03:19:17;-1.40;99.90
30764;DHT22;17497;51.476;7.770;2023-03-01T03:21:47;-1.30;99.90
30764;DHT22;17497;51.476;7.770;2023-03-01T03:24:14;-1.30;99.90
30764;DHT22;17497;51.476;7.770;2023-03-01T03:26:41;-1.30;99.90
30764;DHT22;17497;51.476;7.770;2023-03-01T03:29:08;-1.30;99.90
30764;DHT22;17497;51.476;7.770;2023-03-01T03:31:35;-1.40;99.90
30764;DHT22;17497;51.476;7.770;2023-03-01T03:34:02;-1.40;99.90
30764;DHT22;17497;51.476;7.770;2023-03-01T03:36:30;-1.40;99.90
30764;DHT22;17497;51.476;7.770;2023-03-01T03:38:57;-1.50;99.90
30764;DHT22;17497;51.476;7.770;2023-03-01T03:41:23;-1.50;99.90
30764;DHT22;17497;51.476;7.770;2023-03-01T03:43:50;-1.60;99.90
30764;DHT22;17497;51.476;7.770;2023-03-01T03:46:18;-1.60;99.90
30764;DHT22;17497;51.476;7.770;2023-03-01T03:48:45;-1.60;99.90
30764;DHT22;17497;51.476;7.770;2023-03-01T03:51:13;-1.60;99.90
30764;DHT22;17497;51.476;7.770;2023-03-01T03:53:40;-1.70;99.90
30764;DHT22;17497;51.476;7.770;2023-03-01T03:56:07;-1.70;99.90
30764;DHT22;17497;51.476;7.770;2023-03-01T03:58:34;-1.80;99.90
30764;DHT22;17497;51.476;7.770;2023-03-01T04:01:01;-1.80;99.90
30764;DHT22;17497;51.476;7.770;2023-03-01T04:03:28;-1.70;99.90
30764;DHT22;17497;51.476;7.770;2023-03-01T04:05:56;-1.70;99.90
30764;DHT22;17497;51.476;7.770;2023-03-01T04:08:23;-1.80;99.90
30764;DHT22;17497;51.476;7.770;2023-03-01T04:10:52;-1.80;99.90
30764;DHT22;17497;51.476;7.770;2023-03-01T04:13:20;-1.90;99.90
30764;DHT22;17497;51.476;7.770;2023-03-01T04:15:48;-2.00;99.90
30764;DHT22;17497;51.476;7.770;2023-03-01T04:18:15;-2.10;99.90
30764;DHT22;17497;51.476;7.770;2023-03-01T04:20:44;-2.00;99.90
30764;DHT22;17497;51.476;7.770;2023-03-01T04:23:18;-1.90;99.90
30764;DHT22;17497;51.476;7.770;2023-03-01T04:25:56;-2.00;99.90
30764;DHT22;17497;51.476;7.770;2023-03-01T04:28:24;-2.10;99.90
30764;DHT22;17497;51.476;7.770;2023-03-01T04:30:52;-2.20;99.90
30764;DHT22;17497;51.476;7.770;2023-03-01T04:33:19;-2.20;99.90
30764;DHT22;17497;51.476;7.770;2023-03-01T04:35:46;-2.30;99.90
30764;DHT22;17497;51.476;7.770;2023-03-01T04:38:16;-2.40;99.90
30764;DHT22;17497;51.476;7.770;2023-03-01T04:40:43;-2.40;99.90
30764;DHT22;17497;51.476;7.770;2023-03-01T04:43:11;-2.50;99.90
30764;DHT22;17497;51.476;7.770;2023-03-01T04:45:38;-2.50;99.90
30764;DHT22;17497;51.476;7.770;2023-03-01T04:48:05;-2.30;99.90
30764;DHT22;17497;51.476;7.770;2023-03-01T04:50:31;-2.30;99.90
30764;DHT22;17497;51.476;7.770;2023-03-01T04:52:58;-2.40;99.90
30764;DHT22;17497;51.476;7.770;2023-03-01T04:55:27;-2.40;99.90
30764;DHT22;17497;51.476;7.770;2023-03-01T04:57:55;-2.50;99.90
30764;DHT22;17497;51.476;7.770;2023-03-01T05:00:22;-2.60;99.90
30764;DHT22;17497;51.476;7.770;2023-03-01T05:02:53;-2.60;99.90
30764;DHT22;17497;51.476;7.770;2023-03-01T05:05:25;-2.60;99.90
30764;DHT22;17497;51.476;7.770;2023-03-01T05:07:56;-2.60;99.90
30764;DHT22;17497;51.476;7.770;2023-03-01T05:10:23;-2.50;99.90
30764;DHT22;17497;51.476;7.770;2023-03-01T05:12:50;-2.60;99.90
30764;DHT22;17497;51.476;7.770;2023-03-01T05:15:18;-2.50;99.90
30764;DHT22;17497;51.476;7.770;2023-03-01T05:17:45;-2.60;99.90
30764;DHT22;17497;51.476;7.770;2023-03-01T05:20:12;-2.60;99.90
30764;DHT22;17497;51.476;7.770;2023-03-01T05:22:39;-2.60;99.90
30764;DHT22;17497;51.476;7.770;2023-03-01T05:25:06;-2.70;99.90
30764;DHT22;17497;51.476;7.770;2023-03-01T05:27:34;-2.70;99.90
30764;DHT22;17497;51.476;7.770;2023-03-01T05:30:01;-2.70;99.90
30764;DHT22;17497;51.476;7.770;2023-03-01T05:32:46;-2.60;99.90
30764;DHT22;17497;51.476;7.770;2023-03-01T05:35:14;-2.50;99.90
30764;DHT22;17497;51.476;7.770;2023-03-01T05:37:47;-2.50;99.90
30764;DHT22;17497;51.476;7.770;2023-03-01T05:40:18;-2.40;99.90
30764;DHT22;17497;51.476;7.770;2023-03-01T05:42:46;-2.40;99.90
30764;DHT22;17497;51.476;7.770;2023-03-01T05:45:14;-2.50;99.90
30764;DHT22;17497;51.476;7.770;2023-03-01T05:47:42;-2.50;99.90
30764;DHT22;17497;51.476;7.770;2023-03-01T05:52:38;-2.60;99.90
30764;DHT22;17497;51.476;7.770;2023-03-01T05:55:05;-2.70;99.90
30764;DHT22;17497;51.476;7.770;2023-03-01T05:57:32;-2.70;99.90
30764;DHT22;17497;51.476;7.770;2023-03-01T05:59:59;-2.80;99.90
30764;DHT22;17497;51.476;7.770;2023-03-01T06:02:26;-2.80;99.90
30764;DHT22;17497;51.476;7.770;2023-03-01T06:04:53;-2.70;99.90
30764;DHT22;17497;51.476;7.770;2023-03-01T06:07:20;-2.70;99.90
30764;DHT22;17497;51.476;7.770;2023-03-01T06:09:47;-2.70;99.90
30764;DHT22;17497;51.476;7.770;2023-03-01T06:12:14;-2.60;99.90
30764;DHT22;17497;51.476;7.770;2023-03-01T06:14:41;-2.60;99.90
30764;DHT22;17497;51.476;7.770;2023-03-01T06:17:07;-2.60;99.90
30764;DHT22;17497;51.476;7.770;2023-03-01T06:19:35;-2.60;99.90
30764;DHT22;17497;51.476;7.770;2023-03-01T06:22:01;-2.50;99.90
30764;DHT22;17497;51.476;7.770;2023-03-01T06:24:28;-2.60;99.90
30764;DHT22;17497;51.476;7.770;2023-03-01T06:26:55;-2.60;99.90
30764;DHT22;17497;51.476;7.770;2023-03-01T06:29:22;-2.60;99.90
30764;DHT22;17497;51.476;7.770;2023-03-01T06:31:49;-2.50;99.90
30764;DHT22;17497;51.476;7.770;2023-03-01T06:34:16;-2.50;99.90
30764;DHT22;17497;51.476;7.770;2023-03-01T06:36:44;-2.50;99.90
30764;DHT22;17497;51.476;7.770;2023-03-01T06:39:13;-2.50;99.90
30764;DHT22;17497;51.476;7.770;2023-03-01T06:41:40;-2.60;99.90
30764;DHT22;17497;51.476;7.770;2023-03-01T06:44:06;-2.60;99.90
30764;DHT22;17497;51.476;7.770;2023-03-01T06:46:33;-2.60;99.90
30764;DHT22;17497;51.476;7.770;2023-03-01T06:49:00;-2.60;99.90
30764;DHT22;17497;51.476;7.770;2023-03-01T06:51:27;-2.60;99.90
30764;DHT22;17497;51.476;7.770;2023-03-01T06:53:54;-2.60;99.90
30764;DHT22;17497;51.476;7.770;2023-03-01T06:56:21;-2.50;99.90
30764;DHT22;17497;51.476;7.770;2023-03-01T06:58:48;-2.50;99.90
30764;DHT22;17497;51.476;7.770;2023-03-01T07:01:15;-2.40;99.90
30764;DHT22;17497;51.476;7.770;2023-03-01T07:03:42;-2.30;99.90
30764;DHT22;17497;51.476;7.770;2023-03-01T07:06:10;-2.20;99.90
30764;DHT22;17497;51.476;7.770;2023-03-01T07:08:37;-2.10;99.90
30764;DHT22;17497;51.476;7.770;2023-03-01T07:11:04;-2.10;99.90
30764;DHT22;17497;51.476;7.770;2023-03-01T07:13:32;-2.10;99.90
30764;DHT22;17497;51.476;7.770;2023-03-01T07:15:59;-2.10;99.90
30764;DHT22;17497;51.476;7.770;2023-03-01T07:18:25;-2.10;99.90
30764;DHT22;17497;51.476;7.770;2023-03-01T07:20:52;-2.00;99.90
30764;DHT22;17497;51.476;7.770;2023-03-01T07:23:19;-1.90;99.90
30764;DHT22;17497;51.476;7.770;2023-03-01T07:25:51;-1.90;99.90
30764;DHT22;17497;51.476;7.770;2023-03-01T07:28:18;-1.80;99.90
30764;DHT22;17497;51.476;7.770;2023-03-01T07:30:45;-1.70;99.90
30764;DHT22;17497;51.476;7.770;2023-03-01T07:33:11;-1.60;99.90
30764;DHT22;17497;51.476;7.770;2023-03-01T07:35:38;-1.60;99.90
30764;DHT22;17497;51.476;7.770;2023-03-01T07:38:05;-1.50;99.90
30764;DHT22;17497;51.476;7.770;2023-03-01T07:40:32;-1.50;99.90
30764;DHT22;17497;51.476;7.770;2023-03-01T07:42:59;-1.50;99.90
30764;DHT22;17497;51.476;7.770;2023-03-01T07:45:29;-1.40;99.90
30764;DHT22;17497;51.476;7.770;2023-03-01T07:47:57;-1.30;99.90
30764;DHT22;17497;51.476;7.770;2023-03-01T07:50:24;-1.30;99.90
30764;DHT22;17497;51.476;7.770;2023-03-01T07:52:50;-1.20;99.90
30764;DHT22;17497;51.476;7.770;2023-03-01T07:55:17;-1.10;99.90
30764;DHT22;17497;51.476;7.770;2023-03-01T07:57:44;-1.00;99.90
30764;DHT22;17497;51.476;7.770;2023-03-01T08:00:11;-1.00;99.90
30764;DHT22;17497;51.476;7.770;2023-03-01T08:02:38;-0.90;99.90
30764;DHT22;17497;51.476;7.770;2023-03-01T08:05:07;-0.80;99.90
30764;DHT22;17497;51.476;7.770;2023-03-01T08:07:33;-0.70;99.90
30764;DHT22;17497;51.476;7.770;2023-03-01T08:10:00;-0.60;99.90
30764;DHT22;17497;51.476;7.770;2023-03-01T08:12:27;-0.50;99.90
30764;DHT22;17497;51.476;7.770;2023-03-01T08:14:54;-0.40;99.90
30764;DHT22;17497;51.476;7.770;2023-03-01T08:17:21;-0.30;99.90
30764;DHT22;17497;51.476;7.770;2023-03-01T08:19:48;-0.20;99.90
30764;DHT22;17497;51.476;7.770;2023-03-01T08:22:14;-0.10;99.90
30764;DHT22;17497;51.476;7.770;2023-03-01T08:24:41;-0.10;99.90
30764;DHT22;17497;51.476;7.770;2023-03-01T08:27:08;-0.10;99.90
30764;DHT22;17497;51.476;7.770;2023-03-01T08:29:35;-0.10;99.90
30764;DHT22;17497;51.476;7.770;2023-03-01T08:32:02;0.00;99.90
30764;DHT22;17497;51.476;7.770;2023-03-01T08:34:29;0.10;99.90
30764;DHT22;17497;51.476;7.770;2023-03-01T08:36:57;0.20;99.90
30764;DHT22;17497;51.476;7.770;2023-03-01T08:39:24;0.20;99.90
30764;DHT22;17497;51.476;7.770;2023-03-01T08:41:51;0.20;99.90
30764;DHT22;17497;51.476;7.770;2023-03-01T08:44:18;0.30;99.90
30764;DHT22;17497;51.476;7.770;2023-03-01T08:46:46;0.40;99.90
30764;DHT22;17497;51.476;7.770;2023-03-01T08:49:13;0.50;99.90
30764;DHT22;17497;51.476;7.770;2023-03-01T08:51:41;0.60;99.90
30764;DHT22;17497;51.476;7.770;2023-03-01T08:54:14;0.70;99.90
30764;DHT22;17497;51.476;7.770;2023-03-01T08:56:42;0.90;99.90
30764;DHT22;17497;51.476;7.770;2023-03-01T08:59:09;0.90;99.90
30764;DHT22;17497;51.476;7.770;2023-03-01T09:01:36;1.00;99.90
30764;DHT22;17497;51.476;7.770;2023-03-01T09:04:03;1.10;99.90
30764;DHT22;17497;51.476;7.770;2023-03-01T09:06:33;1.20;99.90
30764;DHT22;17497;51.476;7.770;2023-03-01T09:08:59;1.20;99.90
30764;DHT22;17497;51.476;7.770;2023-03-01T09:11:27;1.30;99.90
30764;DHT22;17497;51.476;7.770;2023-03-01T09:13:54;1.40;99.90
30764;DHT22;17497;51.476;7.770;2023-03-01T09:16:22;1.50;99.90
30764;DHT22;17497;51.476;7.770;2023-03-01T09:18:49;1.60;99.90
30764;DHT22;17497;51.476;7.770;2023-03-01T09:21:17;1.70;99.90
30764;DHT22;17497;51.476;7.770;2023-03-01T09:23:52;1.80;99.90
30764;DHT22;17497;51.476;7.770;2023-03-01T09:26:20;2.00;99.90
30764;DHT22;17497;51.476;7.770;2023-03-01T09:28:48;2.00;99.90
30764;DHT22;17497;51.476;7.770;2023-03-01T09:31:16;2.10;99.90
30764;DHT22;17497;51.476;7.770;2023-03-01T09:33:45;2.10;99.90
30764;DHT22;17497;51.476;7.770;2023-03-01T09:36:13;2.20;99.90
30764;DHT22;17497;51.476;7.770;2023-03-01T09:38:40;2.30;99.90
30764;DHT22;17497;51.476;7.770;2023-03-01T09:43:59;2.40;99.90
30764;DHT22;17497;51.476;7.770;2023-03-01T09:46:26;2.40;99.90
30764;DHT22;17497;51.476;7.770;2023-03-01T09:49:08;2.50;99.90
30764;DHT22;17497;51.476;7.770;2023-03-01T09:51:37;2.70;99.90
30764;DHT22;17497;51.476;7.770;2023-03-01T09:54:04;2.80;99.90
30764;DHT22;17497;51.476;7.770;2023-03-01T10:01:35;3.10;99.90
30764;DHT22;17497;51.476;7.770;2023-03-01T10:06:51;3.50;99.90
30764;DHT22;17497;51.476;7.770;2023-03-01T10:09:24;3.70;99.90
30764;DHT22;17497;51.476;7.770;2023-03-01T10:11:52;3.90;99.90
30764;DHT22;17497;51.476;7.770;2023-03-01T10:17:01;4.30;99.90
30764;DHT22;17497;51.476;7.770;2023-03-01T10:21:57;4.70;99.90
30764;DHT22;17497;51.476;7.770;2023-03-01T10:24:27;5.10;99.90
30764;DHT22;17497;51.476;7.770;2023-03-01T10:26:58;5.30;99.90
30764;DHT22;17497;51.476;7.770;2023-03-01T10:29:37;5.50;99.90
30764;DHT22;17497;51.476;7.770;2023-03-01T10:32:05;5.60;99.90
30764;DHT22;17497;51.476;7.770;2023-03-01T10:34:34;5.70;99.90
30764;DHT22;17497;51.476;7.770;2023-03-01T10:37:09;5.80;99.90
30764;DHT22;17497;51.476;7.770;2023-03-01T10:39:37;6.00;99.90
30764;DHT22;17497;51.476;7.770;2023-03-01T10:42:05;6.30;99.90
30764;DHT22;17497;51.476;7.770;2023-03-01T10:47:08;6.80;99.90
30764;DHT22;17497;51.476;7.770;2023-03-01T10:49:38;7.10;99.90
30764;DHT22;17497;51.476;7.770;2023-03-01T10:52:17;7.30;99.90
30764;DHT22;17497;51.476;7.770;2023-03-01T10:54:52;7.30;99.90
30764;DHT22;17497;51.476;7.770;2023-03-01T10:57:52;7.40;99.90
30764;DHT22;17497;51.476;7.770;2023-03-01T11:02:46;8.40;99.90
30764;DHT22;17497;51.476;7.770;2023-03-01T11:07:49;8.40;99.90
30764;DHT22;17497;51.476;7.770;2023-03-01T11:10:28;8.40;99.90
30764;DHT22;17497;51.476;7.770;2023-03-01T11:13:15;8.80;99.90
30764;DHT22;17497;51.476;7.770;2023-03-01T11:15:42;9.00;99.90
30764;DHT22;17497;51.476;7.770;2023-03-01T11:18:19;9.20;99.90
30764;DHT22;17497;51.476;7.770;2023-03-01T11:20:51;9.70;99.90
30764;DHT22;17497;51.476;7.770;2023-03-01T11:23:19;10.50;99.90
30764;DHT22;17497;51.476;7.770;2023-03-01T11:28:46;11.00;97.30
30764;DHT22;17497;51.476;7.770;2023-03-01T11:31:14;10.90;97.80
30764;DHT22;17497;51.476;7.770;2023-03-01T11:33:44;11.40;96.00
30764;DHT22;17497;51.476;7.770;2023-03-01T11:36:49;11.60;94.70
30764;DHT22;17497;51.476;7.770;2023-03-01T11:39:25;11.00;95.40
30764;DHT22;17497;51.476;7.770;2023-03-01T11:42:18;11.50;97.60
30764;DHT22;17497;51.476;7.770;2023-03-01T11:44:46;11.90;93.90
30764;DHT22;17497;51.476;7.770;2023-03-01T11:50:00;12.30;93.00
30764;DHT22;17497;51.476;7.770;2023-03-01T11:58:18;11.90;91.70
30764;DHT22;17497;51.476;7.770;2023-03-01T12:00:54;12.10;91.10
30764;DHT22;17497;51.476;7.770;2023-03-01T12:06:19;12.10;90.20
30764;DHT22;17497;51.476;7.770;2023-03-01T12:19:08;13.40;86.50
30764;DHT22;17497;51.476;7.770;2023-03-01T12:43:39;13.00;77.50
30764;DHT22;17497;51.476;7.770;2023-03-01T12:46:21;13.70;78.30
30764;DHT22;17497;51.476;7.770;2023-03-01T12:49:05;14.20;73.40
30764;DHT22;17497;51.476;7.770;2023-03-01T12:51:34;14.30;69.30
30764;DHT22;17497;51.476;7.770;2023-03-01T12:54:05;14.80;70.30
30764;DHT22;17497;51.476;7.770;2023-03-01T12:56:35;14.10;71.10
30764;DHT22;17497;51.476;7.770;2023-03-01T13:01:46;13.00;70.70
30764;DHT22;17497;51.476;7.770;2023-03-01T13:04:17;13.60;73.50
30764;DHT22;17497;51.476;7.770;2023-03-01T13:07:01;14.10;73.80
30764;DHT22;17497;51.476;7.770;2023-03-01T13:12:41;15.00;64.00
30764;DHT22;17497;51.476;7.770;2023-03-01T13:14:51;14.70;62.60
30764;DHT22;17497;51.476;7.770;2023-03-01T13:23:23;14.00;62.20
30764;DHT22;17497;51.476;7.770;2023-03-01T13:31:03;13.80;63.70
30764;DHT22;17497;51.476;7.770;2023-03-01T13:35:57;14.30;61.70
30764;DHT22;17497;51.476;7.770;2023-03-01T13:41:03;14.00;61.20
30764;DHT22;17497;51.476;7.770;2023-03-01T13:43:34;14.80;60.60
30764;DHT22;17497;51.476;7.770;2023-03-01T13:46:07;15.20;58.80
30764;DHT22;17497;51.476;7.770;2023-03-01T13:48:34;15.30;58.70
30764;DHT22;17497;51.476;7.770;2023-03-01T13:51:02;15.80;57.30
30764;DHT22;17497;51.476;7.770;2023-03-01T13:53:30;15.90;57.00
30764;DHT22;17497;51.476;7.770;2023-03-01T13:55:58;16.00;58.00
30764;DHT22;17497;51.476;7.770;2023-03-01T13:58:28;16.80;55.20
30764;DHT22;17497;51.476;7.770;2023-03-01T14:00:59;16.60;54.30
30764;DHT22;17497;51.476;7.770;2023-03-01T14:03:27;16.50;54.30
30764;DHT22;17497;51.476;7.770;2023-03-01T14:06:08;15.70;54.50
30764;DHT22;17497;51.476;7.770;2023-03-01T14:08:42;15.80;54.20
30764;DHT22;17497;51.476;7.770;2023-03-01T14:16:27;14.80;55.30
30764;DHT22;17497;51.476;7.770;2023-03-01T14:19:15;14.90;55.60
30764;DHT22;17497;51.476;7.770;2023-03-01T14:22:05;14.40;55.40
30764;DHT22;17497;51.476;7.770;2023-03-01T14:24:38;15.00;55.40
30764;DHT22;17497;51.476;7.770;2023-03-01T14:27:10;15.70;54.40
30764;DHT22;17497;51.476;7.770;2023-03-01T14:29:38;15.60;53.50
30764;DHT22;17497;51.476;7.770;2023-03-01T14:34:44;15.90;53.10
30764;DHT22;17497;51.476;7.770;2023-03-01T14:37:22;16.60;52.90
30764;DHT22;17497;51.476;7.770;2023-03-01T14:39:50;17.70;51.60
30764;DHT22;17497;51.476;7.770;2023-03-01T14:42:17;17.70;51.10
30764;DHT22;17497;51.476;7.770;2023-03-01T14:44:46;15.90;52.30
30764;DHT22;17497;51.476;7.770;2023-03-01T14:47:14;15.70;52.60
30764;DHT22;17497;51.476;7.770;2023-03-01T14:49:42;15.50;52.30
30764;DHT22;17497;51.476;7.770;2023-03-01T14:52:17;15.20;53.40
30764;DHT22;17497;51.476;7.770;2023-03-01T14:54:47;14.50;54.50
30764;DHT22;17497;51.476;7.770;2023-03-01T14:57:15;14.90;53.50
30764;DHT22;17497;51.476;7.770;2023-03-01T14:59:42;15.00;53.20
30764;DHT22;17497;51.476;7.770;2023-03-01T15:02:12;14.90;54.20
30764;DHT22;17497;51.476;7.770;2023-03-01T15:04:45;14.90;53.20
30764;DHT22;17497;51.476;7.770;2023-03-01T15:07:12;15.00;53.90
30764;DHT22;17497;51.476;7.770;2023-03-01T15:09:40;15.70;53.30
30764;DHT22;17497;51.476;7.770;2023-03-01T15:14:53;15.10;53.70
30764;DHT22;17497;51.476;7.770;2023-03-01T15:17:33;14.50;54.30
30764;DHT22;17497;51.476;7.770;2023-03-01T15:20:03;14.40;55.50
30764;DHT22;17497;51.476;7.770;2023-03-01T15:22:30;14.20;54.10
30764;DHT22;17497;51.476;7.770;2023-03-01T15:24:57;14.40;54.40
30764;DHT22;17497;51.476;7.770;2023-03-01T15:27:25;14.60;54.30
30764;DHT22;17497;51.476;7.770;2023-03-01T15:29:56;14.60;53.20
30764;DHT22;17497;51.476;7.770;2023-03-01T15:32:28;14.30;52.90
30764;DHT22;17497;51.476;7.770;2023-03-01T15:34:57;14.10;54.10
30764;DHT22;17497;51.476;7.770;2023-03-01T15:37:44;13.50;55.00
30764;DHT22;17497;51.476;7.770;2023-03-01T15:42:58;14.10;54.40
30764;DHT22;17497;51.476;7.770;2023-03-01T15:45:26;14.60;53.40
30764;DHT22;17497;51.476;7.770;2023-03-01T15:50:22;14.90;52.70
30764;DHT22;17497;51.476;7.770;2023-03-01T15:52:49;14.90;52.30
30764;DHT22;17497;51.476;7.770;2023-03-01T15:55:19;14.50;52.10
30764;DHT22;17497;51.476;7.770;2023-03-01T15:57:47;14.00;53.00
30764;DHT22;17497;51.476;7.770;2023-03-01T16:00:14;13.40;55.10
30764;DHT22;17497;51.476;7.770;2023-03-01T16:02:42;12.90;55.60
30764;DHT22;17497;51.476;7.770;2023-03-01T16:05:17;12.70;56.30
30764;DHT22;17497;51.476;7.770;2023-03-01T16:07:44;12.80;55.80
30764;DHT22;17497;51.476;7.770;2023-03-01T16:10:11;12.70;57.60
30764;DHT22;17497;51.476;7.770;2023-03-01T16:12:38;12.70;56.50
30764;DHT22;17497;51.476;7.770;2023-03-01T16:15:11;12.50;56.90
30764;DHT22;17497;51.476;7.770;2023-03-01T16:17:40;12.30;56.80
30764;DHT22;17497;51.476;7.770;2023-03-01T16:20:06;11.80;57.20
30764;DHT22;17497;51.476;7.770;2023-03-01T16:22:40;11.30;59.40
30764;DHT22;17497;51.476;7.770;2023-03-01T16:25:10;11.10;59.40
30764;DHT22;17497;51.476;7.770;2023-03-01T16:27:41;10.80;59.90
30764;DHT22;17497;51.476;7.770;2023-03-01T16:30:08;10.00;63.70
30764;DHT22;17497;51.476;7.770;2023-03-01T16:32:42;9.60;64.40
30764;DHT22;17497;51.476;7.770;2023-03-01T16:35:10;9.20;66.20
30764;DHT22;17497;51.476;7.770;2023-03-01T16:37:37;8.90;67.40
30764;DHT22;17497;51.476;7.770;2023-03-01T16:40:05;8.40;69.80
30764;DHT22;17497;51.476;7.770;2023-03-01T16:42:36;8.00;71.50
30764;DHT22;17497;51.476;7.770;2023-03-01T16:45:03;7.70;72.40
30764;DHT22;17497;51.476;7.770;2023-03-01T16:47:36;7.30;75.50
30764;DHT22;17497;51.476;7.770;2023-03-01T16:50:03;7.20;75.20
30764;DHT22;17497;51.476;7.770;2023-03-01T16:52:30;7.20;75.00
30764;DHT22;17497;51.476;7.770;2023-03-01T16:54:56;6.90;77.90
30764;DHT22;17497;51.476;7.770;2023-03-01T16:57:23;6.70;78.20
30764;DHT22;17497;51.476;7.770;2023-03-01T16:59:53;6.50;81.20
30764;DHT22;17497;51.476;7.770;2023-03-01T17:02:20;6.40;87.50
30764;DHT22;17497;51.476;7.770;2023-03-01T17:04:53;6.30;86.70
30764;DHT22;17497;51.476;7.770;2023-03-01T17:07:20;6.40;89.70
30764;DHT22;17497;51.476;7.770;2023-03-01T17:09:47;6.30;86.70
30764;DHT22;17497;51.476;7.770;2023-03-01T17:12:14;6.20;86.00
30764;DHT22;17497;51.476;7.770;2023-03-01T17:14:41;6.00;87.70
30764;DHT22;17497;51.476;7.770;2023-03-01T17:17:08;5.80;89.50
30764;DHT22;17497;51.476;7.770;2023-03-01T17:19:35;5.60;90.20
30764;DHT22;17497;51.476;7.770;2023-03-01T17:22:06;5.50;90.40
30764;DHT22;17497;51.476;7.770;2023-03-01T17:24:33;5.50;90.90
30764;DHT22;17497;51.476;7.770;2023-03-01T17:27:00;5.40;91.20
30764;DHT22;17497;51.476;7.770;2023-03-01T17:29:26;5.30;91.70
30764;DHT22;17497;51.476;7.770;2023-03-01T17:31:53;5.20;92.00
30764;DHT22;17497;51.476;7.770;2023-03-01T17:34:22;5.20;92.30
30764;DHT22;17497;51.476;7.770;2023-03-01T17:36:49;5.20;92.30
30764;DHT22;17497;51.476;7.770;2023-03-01T17:39:18;5.10;92.50
30764;DHT22;17497;51.476;7.770;2023-03-01T17:41:51;5.10;92.90
30764;DHT22;17497;51.476;7.770;2023-03-01T17:44:18;5.00;93.70
30764;DHT22;17497;51.476;7.770;2023-03-01T17:46:45;5.00;93.50
30764;DHT22;17497;51.476;7.770;2023-03-01T17:49:12;5.00;94.30